General Aviation Weather

Text Reports

Enter one or more of the following location identifiers separated by a space:

Zip Code, Four-Character ICAO or Three-Character IATA airport codes.

METAR - Aviation Routine Weather Report
PAAK - Atka, Alaska
Updated at 3:36 PM GMT on October 22, 2014 (6:36 AM HADT):
METAR PAAK 221536Z 28013G17KT 10SM FEW025 OVC038 06/02 A3018 RMK AO1
TAF - Terminal Area Forecast
PAAK - Atka, Alaska
Updated at 3:36 PM GMT on October 22, 2014 (6:36 AM HADT):
No TAF is currently available for this location.
Decoded:
No decoded TAF is available.
PIREP - Pilot Weather Report
PAAK - Atka, Alaska
Updated at 3:36 PM GMT on October 22, 2014 (6:36 AM HADT):
No PIREP is currently available for this location.
AIRMET - Airmens Meteorological Information
PAAK - Atka, Alaska
Updated at 3:36 PM GMT on October 22, 2014 (6:36 AM HADT):
No AIRMET is currently available for this location.
SIGMET - Significant Meteorological Information
PAAK - Atka, Alaska
Updated at 3:36 PM GMT on October 22, 2014 (6:36 AM HADT):
No SIGMET is currently available for this location.
NOTAM - Notice to Airmen
PAAK - Atka, Alaska
Updated at 3:36 PM GMT on October 22, 2014 (6:36 AM HADT):
No NOTAM is currently available for this location.
Forecast Area
PAAK - Atka, Alaska
Updated at 3:36 PM GMT on October 22, 2014 (6:36 AM HADT):
No NOTAM is currently available for this location.
Aviation Weather Maps